createdAt,value
2017-04-28T04:00:55.597Z,5
2017-04-28T04:01:21.129Z,5
2017-04-28T04:01:46.552Z,5
2017-04-28T04:02:12.009Z,5
2017-04-28T04:02:37.466Z,5
2017-04-28T04:03:02.930Z,5
2017-04-28T04:03:28.420Z,5
2017-04-28T04:03:53.894Z,5
2017-04-28T04:04:19.361Z,5
2017-04-28T04:04:44.820Z,5
2017-04-28T04:05:10.274Z,5
2017-04-28T04:05:35.735Z,5
2017-04-28T04:06:01.241Z,5
2017-04-28T04:06:26.715Z,10
2017-04-28T04:06:52.187Z,10
2017-04-28T04:07:17.660Z,10
2017-04-28T04:07:43.161Z,10
2017-04-28T04:08:08.652Z,10
2017-04-28T04:08:34.096Z,10
2017-04-28T04:08:59.586Z,10
2017-04-28T04:09:25.057Z,10
2017-04-28T04:09:50.489Z,10
2017-04-28T04:10:16.072Z,10
2017-04-28T04:10:41.538Z,10
2017-04-28T04:11:06.983Z,10
2017-04-28T04:11:32.451Z,10
2017-04-28T04:11:57.922Z,15
2017-04-28T04:12:23.423Z,15
2017-04-28T04:12:48.850Z,15
2017-04-28T04:13:14.295Z,15
2017-04-28T04:13:39.757Z,15
2017-04-28T04:14:05.237Z,15
2017-04-28T04:14:30.740Z,15
2017-04-28T04:14:56.157Z,15
2017-04-28T04:15:21.639Z,15
2017-04-28T04:15:47.087Z,15
2017-04-28T04:16:12.572Z,15
2017-04-28T04:16:38.042Z,20
2017-04-28T04:17:03.511Z,20
2017-04-28T04:17:28.985Z,20
2017-04-28T04:17:54.434Z,20
2017-04-28T04:18:19.919Z,20
2017-04-28T04:18:45.385Z,20
2017-04-28T04:19:10.812Z,20
2017-04-28T04:19:36.278Z,20
2017-04-28T04:20:01.755Z,20
2017-04-28T04:20:27.184Z,25
2017-04-28T04:20:52.678Z,25
2017-04-28T04:21:18.130Z,25
2017-04-28T04:21:43.605Z,25
2017-04-28T04:22:09.064Z,25
2017-04-28T04:22:34.559Z,25
2017-04-28T04:23:00.021Z,25
2017-04-28T04:23:25.485Z,25
2017-04-28T04:23:50.972Z,30
2017-04-28T04:24:16.460Z,30
2017-04-28T04:24:41.918Z,30
2017-04-28T04:25:07.377Z,30
2017-04-28T04:25:32.839Z,30
2017-04-28T04:25:58.308Z,30
2017-04-28T04:26:23.754Z,30
2017-04-28T04:26:49.220Z,30
2017-04-28T04:27:14.692Z,35
2017-04-28T04:27:40.159Z,35
2017-04-28T04:28:05.628Z,35
2017-04-28T04:28:31.083Z,35
2017-04-28T04:28:56.559Z,35
2017-04-28T04:29:22.013Z,35
2017-04-28T04:29:47.474Z,35
2017-04-28T04:30:12.956Z,40
2017-04-28T04:30:38.471Z,40
2017-04-28T04:31:03.933Z,40
2017-04-28T04:31:29.409Z,40
2017-04-28T04:31:54.895Z,40
2017-04-28T04:32:20.353Z,40
2017-04-28T04:32:45.835Z,40
2017-04-28T04:33:11.311Z,40
2017-04-28T04:33:36.759Z,40
2017-04-28T04:34:02.238Z,40
2017-04-28T04:34:27.739Z,40
2017-04-28T04:34:53.201Z,40
2017-04-28T04:35:18.676Z,45
2017-04-28T04:35:44.122Z,45
2017-04-28T04:36:09.593Z,45
2017-04-28T04:36:35.075Z,45
2017-04-28T04:37:00.539Z,45
2017-04-28T04:37:26.000Z,45
2017-04-28T04:37:51.460Z,45
2017-04-28T04:38:16.921Z,45
2017-04-28T04:38:42.411Z,45
2017-04-28T04:39:07.878Z,45
2017-04-28T04:39:33.402Z,45
2017-04-28T04:39:58.879Z,45
2017-04-28T04:40:24.340Z,50
2017-04-28T04:40:49.805Z,50
2017-04-28T04:41:15.259Z,50
2017-04-28T04:41:40.730Z,50
2017-04-28T04:42:06.190Z,50
2017-04-28T04:42:31.646Z,50
2017-04-28T04:42:57.125Z,50
2017-04-28T04:43:22.569Z,50
2017-04-28T04:43:48.064Z,50
2017-04-28T04:44:13.534Z,55
2017-04-28T04:44:39.021Z,55
2017-04-28T04:45:04.459Z,55
2017-04-28T04:45:29.941Z,55
2017-04-28T04:45:55.405Z,55
2017-04-28T04:46:20.876Z,55
2017-04-28T04:46:46.332Z,55
2017-04-28T04:47:11.802Z,55
2017-04-28T04:47:37.261Z,60
2017-04-28T04:48:02.709Z,60
2017-04-28T04:48:28.217Z,60
2017-04-28T04:48:53.660Z,60
2017-04-28T04:49:19.105Z,60
2017-04-28T04:49:44.578Z,60
2017-04-28T04:50:10.022Z,60
2017-04-28T04:50:35.476Z,65
2017-04-28T04:51:00.937Z,65
2017-04-28T04:51:26.400Z,65
2017-04-28T04:51:51.886Z,65
2017-04-28T04:52:17.377Z,65
2017-04-28T04:52:42.820Z,65
2017-04-28T04:53:08.279Z,65
2017-04-28T04:53:33.748Z,65
2017-04-28T04:53:59.203Z,65
2017-04-28T04:54:24.680Z,65
2017-04-28T04:54:50.141Z,65
2017-04-28T04:55:15.624Z,65
2017-04-28T04:55:41.080Z,65
2017-04-28T04:56:06.544Z,65
2017-04-28T04:56:31.995Z,65
2017-04-28T04:56:57.461Z,65
2017-04-28T04:57:22.941Z,65
2017-04-28T04:57:48.413Z,65
2017-04-28T04:58:13.856Z,70
2017-04-28T04:58:39.380Z,70
2017-04-28T04:59:04.760Z,70
2017-04-28T04:59:30.205Z,70
2017-04-28T04:59:55.657Z,70
2017-04-28T05:00:21.126Z,75
2017-04-28T05:00:46.598Z,75
2017-04-28T05:01:12.050Z,75
2017-04-28T05:01:37.507Z,75
2017-04-28T05:02:02.973Z,75
2017-04-28T05:02:28.440Z,80
2017-04-28T05:02:53.929Z,80
2017-04-28T05:03:19.385Z,80
2017-04-28T05:03:44.860Z,80
2017-04-28T05:04:10.412Z,85
2017-04-28T05:04:35.839Z,85
2017-04-28T05:05:01.318Z,85
2017-04-28T05:05:26.750Z,90
2017-04-28T05:05:52.242Z,85
2017-04-28T05:06:17.680Z,90
2017-04-28T05:06:43.163Z,90
2017-04-28T05:07:08.673Z,90
2017-04-28T05:07:34.212Z,90
2017-04-28T05:07:59.687Z,90
2017-04-28T05:08:25.171Z,90
2017-04-28T05:08:50.664Z,90
2017-04-28T05:09:16.076Z,90
2017-04-28T05:09:41.537Z,90
2017-04-28T05:10:06.995Z,95
2017-04-28T05:10:32.441Z,95
2017-04-28T05:10:57.899Z,95
2017-04-28T05:11:23.365Z,100
2017-04-28T05:11:48.940Z,100
2017-04-28T05:12:14.341Z,100
2017-04-28T05:12:39.811Z,100
2017-04-28T05:13:05.267Z,100
2017-04-28T05:13:30.720Z,100
2017-04-28T05:13:56.264Z,100
2017-04-28T05:14:21.682Z,100
2017-04-28T05:14:47.141Z,100
2017-04-28T05:15:12.599Z,95
2017-04-28T05:15:38.054Z,95
2017-04-28T05:16:03.532Z,95
2017-04-28T05:16:29.015Z,100
2017-04-28T05:16:54.502Z,100
2017-04-28T05:17:19.996Z,100
2017-04-28T05:17:45.454Z,105
2017-04-28T05:18:10.903Z,105
2017-04-28T05:18:36.359Z,105
2017-04-28T05:19:01.888Z,110
2017-04-28T05:19:27.342Z,110
2017-04-28T05:19:52.819Z,110
2017-04-28T05:20:18.287Z,110
2017-04-28T05:20:43.751Z,115
2017-04-28T05:21:09.210Z,115
2017-04-28T05:21:34.673Z,115
2017-04-28T05:22:00.130Z,115
2017-04-28T05:22:25.581Z,115
2017-04-28T05:22:51.052Z,115
2017-04-28T05:23:16.537Z,115
2017-04-28T05:23:41.985Z,115
2017-04-28T05:24:07.430Z,115
2017-04-28T05:24:32.911Z,115
2017-04-28T05:24:58.364Z,115
2017-04-28T05:25:23.819Z,115
2017-04-28T05:25:49.290Z,120
2017-04-28T05:26:14.751Z,120
2017-04-28T05:26:40.219Z,120
2017-04-28T05:27:05.705Z,120
2017-04-28T05:27:31.147Z,125
2017-04-28T05:27:56.603Z,125
2017-04-28T05:28:22.069Z,120
2017-04-28T05:28:47.536Z,120
2017-04-28T05:29:13.052Z,125
2017-04-28T05:29:38.442Z,125
2017-04-28T05:30:03.900Z,125
2017-04-28T05:30:29.373Z,125
2017-04-28T05:30:54.845Z,125
2017-04-28T05:31:20.309Z,125
2017-04-28T05:31:45.766Z,125
2017-04-28T05:32:11.221Z,125
2017-04-28T05:32:36.698Z,125
2017-04-28T05:33:02.169Z,125
2017-04-28T05:33:27.668Z,125
2017-04-28T05:33:53.106Z,125
2017-04-28T05:34:18.670Z,125
2017-04-28T05:34:44.151Z,125
2017-04-28T05:35:09.595Z,125
2017-04-28T05:35:35.054Z,125
2017-04-28T05:36:00.473Z,125
2017-04-28T05:36:25.948Z,125
2017-04-28T05:36:51.853Z,130
2017-04-28T05:37:17.127Z,130
2017-04-28T05:37:42.620Z,130
2017-04-28T05:38:08.059Z,130
2017-04-28T05:38:33.518Z,125
2017-04-28T05:38:58.993Z,125
2017-04-28T05:39:24.457Z,125
2017-04-28T05:39:49.943Z,125
2017-04-28T05:40:15.400Z,125
2017-04-28T05:40:40.843Z,130
2017-04-28T05:41:06.316Z,130
2017-04-28T05:41:31.801Z,130
2017-04-28T05:41:57.276Z,135
2017-04-28T05:42:22.729Z,135
2017-04-28T05:42:48.184Z,130
2017-04-28T05:43:13.666Z,130
2017-04-28T05:43:39.119Z,130
2017-04-28T05:44:04.585Z,130
2017-04-28T05:44:30.054Z,130
2017-04-28T05:44:55.520Z,130
2017-04-28T05:45:21.002Z,130
2017-04-28T05:45:46.471Z,130
2017-04-28T05:46:11.921Z,130
2017-04-28T05:46:37.377Z,130
2017-04-28T05:47:02.845Z,130
2017-04-28T05:47:28.308Z,130
2017-04-28T05:47:53.774Z,130
2017-04-28T05:48:19.236Z,125
2017-04-28T05:48:44.695Z,125
2017-04-28T05:49:10.165Z,125
2017-04-28T05:49:35.655Z,125
2017-04-28T05:50:01.126Z,125
2017-04-28T05:50:26.578Z,125
2017-04-28T05:50:52.065Z,125
2017-04-28T05:51:17.508Z,125
2017-04-28T05:51:42.993Z,125
2017-04-28T05:52:08.455Z,125
2017-04-28T05:52:33.930Z,125
2017-04-28T05:52:59.422Z,125
2017-04-28T05:53:24.904Z,125
2017-04-28T05:53:50.438Z,125
2017-04-28T05:54:15.873Z,125
2017-04-28T05:54:41.331Z,125
2017-04-28T05:55:06.791Z,125
2017-04-28T05:55:32.265Z,125
2017-04-28T05:55:57.728Z,125
2017-04-28T05:56:23.319Z,125
2017-04-28T05:56:48.725Z,120
2017-04-28T05:57:14.178Z,120
2017-04-28T05:57:39.638Z,115
2017-04-28T05:58:05.091Z,115
2017-04-28T05:58:30.585Z,115
2017-04-28T05:58:56.018Z,110
2017-04-28T05:59:21.523Z,115
2017-04-28T05:59:46.962Z,115
2017-04-28T06:00:12.418Z,115
2017-04-28T06:00:37.901Z,120
2017-04-28T06:01:03.375Z,120
2017-04-28T06:01:28.867Z,120
2017-04-28T06:01:54.360Z,120
2017-04-28T06:02:19.818Z,120
2017-04-28T06:02:45.290Z,120
2017-04-28T06:03:10.758Z,115
2017-04-28T06:03:36.260Z,115
2017-04-28T06:04:01.700Z,110
2017-04-28T06:04:27.432Z,110
2017-04-28T06:04:52.800Z,110
2017-04-28T06:05:18.279Z,110
2017-04-28T06:05:43.756Z,115
2017-04-28T06:06:09.233Z,115
2017-04-28T06:06:34.668Z,115
2017-04-28T06:07:00.136Z,115
2017-04-28T06:07:25.618Z,110
2017-04-28T06:07:51.062Z,110
2017-04-28T06:08:16.531Z,110
2017-04-28T06:08:42.039Z,115
2017-04-28T06:09:07.667Z,115
2017-04-28T06:09:33.109Z,115
2017-04-28T06:09:58.629Z,115
2017-04-28T06:10:24.059Z,120
2017-04-28T06:10:49.523Z,120
2017-04-28T06:11:15.000Z,120
2017-04-28T06:11:40.492Z,120
2017-04-28T06:12:06.099Z,120
2017-04-28T06:12:31.489Z,115
2017-04-28T06:12:56.978Z,115
2017-04-28T06:13:22.430Z,115
2017-04-28T06:13:47.897Z,115
2017-04-28T06:14:13.337Z,115
2017-04-28T06:14:38.869Z,120
2017-04-28T06:15:04.360Z,125
2017-04-28T06:15:29.851Z,125
2017-04-28T06:15:55.324Z,125
2017-04-28T06:16:20.818Z,125
2017-04-28T06:16:46.278Z,130
2017-04-28T06:17:11.756Z,130
2017-04-28T06:17:37.210Z,125
2017-04-28T06:18:02.701Z,125
2017-04-28T06:18:28.176Z,125
2017-04-28T06:18:53.632Z,125
2017-04-28T06:19:19.119Z,125
2017-04-28T06:19:44.587Z,125
2017-04-28T06:20:10.193Z,125
2017-04-28T06:20:35.638Z,125
2017-04-28T06:21:01.113Z,125
2017-04-28T06:21:26.645Z,120
2017-04-28T06:21:52.098Z,120
2017-04-28T06:22:17.583Z,120
2017-04-28T06:22:43.050Z,115
2017-04-28T06:23:08.523Z,110
2017-04-28T06:23:33.973Z,115
2017-04-28T06:23:59.460Z,115
2017-04-28T06:24:24.950Z,115
2017-04-28T06:24:50.436Z,115
2017-04-28T06:25:15.907Z,120
2017-04-28T06:25:41.365Z,120
2017-04-28T06:26:06.851Z,125
2017-04-28T06:26:32.362Z,125
2017-04-28T06:26:57.792Z,125
2017-04-28T06:27:23.219Z,120
2017-04-28T06:27:48.686Z,120
2017-04-28T06:28:14.159Z,120
2017-04-28T06:28:39.649Z,125
2017-04-28T06:29:05.107Z,125
2017-04-28T06:29:30.558Z,130
2017-04-28T06:29:56.024Z,135
2017-04-28T06:30:21.536Z,135
2017-04-28T06:30:47.106Z,140
2017-04-28T06:31:12.574Z,140
2017-04-28T06:31:38.060Z,140
2017-04-28T06:32:03.508Z,140
2017-04-28T06:32:28.980Z,140
2017-04-28T06:32:54.414Z,145
2017-04-28T06:33:19.890Z,145
2017-04-28T06:33:45.375Z,145
2017-04-28T06:34:10.871Z,145
2017-04-28T06:34:36.381Z,150
2017-04-28T06:35:01.794Z,150
2017-04-28T06:35:27.290Z,155
2017-04-28T06:35:52.749Z,155
2017-04-28T06:36:18.225Z,155
2017-04-28T06:36:43.682Z,155
2017-04-28T06:37:09.159Z,155
2017-04-28T06:37:34.648Z,155
2017-04-28T06:38:00.171Z,155
2017-04-28T06:38:25.611Z,155
2017-04-28T06:38:51.089Z,150
2017-04-28T06:39:16.586Z,150
2017-04-28T06:39:42.069Z,150
2017-04-28T06:40:07.533Z,150
2017-04-28T06:40:33.015Z,150
2017-04-28T06:40:58.758Z,150
2017-04-28T06:41:24.055Z,150
2017-04-28T06:41:49.540Z,145
2017-04-28T06:42:14.979Z,145
2017-04-28T06:42:40.454Z,145
2017-04-28T06:43:05.915Z,145
2017-04-28T06:43:31.401Z,145
2017-04-28T06:43:56.855Z,140
2017-04-28T06:44:22.343Z,140
2017-04-28T06:44:47.815Z,135
2017-04-28T06:45:13.283Z,135
2017-04-28T06:45:38.731Z,130
2017-04-28T06:46:04.196Z,130
2017-04-28T06:46:29.686Z,130
2017-04-28T06:46:55.147Z,130
2017-04-28T06:47:20.602Z,130
2017-04-28T06:47:46.060Z,130
2017-04-28T06:48:11.520Z,135
2017-04-28T06:48:36.991Z,135
2017-04-28T06:49:02.457Z,130
2017-04-28T06:49:27.911Z,130
2017-04-28T06:49:53.461Z,130
2017-04-28T06:50:18.943Z,130
2017-04-28T06:50:44.436Z,135
2017-04-28T06:51:09.884Z,135
2017-04-28T06:51:35.337Z,135
2017-04-28T06:52:00.795Z,140
2017-04-28T06:52:26.266Z,145
2017-04-28T06:52:51.710Z,150
2017-04-28T06:53:17.179Z,150
2017-04-28T06:53:42.681Z,150
2017-04-28T06:54:08.124Z,155
2017-04-28T06:54:33.569Z,155
2017-04-28T06:54:59.050Z,155
2017-04-28T06:55:24.508Z,155
2017-04-28T06:55:49.974Z,150
2017-04-28T06:56:15.625Z,150
2017-04-28T06:56:41.044Z,145
2017-04-28T06:57:06.468Z,145
2017-04-28T06:57:31.985Z,150
2017-04-28T06:57:57.426Z,150
2017-04-28T06:58:22.905Z,155
2017-04-28T06:58:48.349Z,155
2017-04-28T06:59:13.799Z,160
2017-04-28T06:59:39.229Z,165
2017-04-28T07:00:04.756Z,165
2017-04-28T07:00:30.196Z,165
2017-04-28T07:00:55.667Z,165
2017-04-28T07:01:21.137Z,165
2017-04-28T07:01:46.643Z,170
2017-04-28T07:02:12.119Z,170
2017-04-28T07:02:37.584Z,170
2017-04-28T07:03:03.032Z,170
2017-04-28T07:03:28.527Z,170
2017-04-28T07:03:54.016Z,175
2017-04-28T07:04:19.619Z,175
2017-04-28T07:04:44.961Z,175
2017-04-28T07:05:10.370Z,175
2017-04-28T07:05:35.849Z,175
2017-04-28T07:06:01.294Z,180
2017-04-28T07:06:26.766Z,180
2017-04-28T07:06:52.250Z,180
2017-04-28T07:07:17.671Z,180
2017-04-28T07:07:43.148Z,180
2017-04-28T07:08:08.623Z,175
2017-04-28T07:08:34.116Z,180
2017-04-28T07:08:59.545Z,180
2017-04-28T07:09:25.046Z,180
2017-04-28T07:09:50.496Z,180
2017-04-28T07:10:15.952Z,180
2017-04-28T07:10:41.441Z,180
2017-04-28T07:11:06.927Z,180
2017-04-28T07:11:32.382Z,180
2017-04-28T07:11:57.834Z,180
2017-04-28T07:12:23.323Z,185
2017-04-28T07:12:48.812Z,185
2017-04-28T07:13:14.245Z,185
2017-04-28T07:13:39.717Z,185
2017-04-28T07:14:05.150Z,190
2017-04-28T07:14:30.662Z,190
2017-04-28T07:14:56.093Z,195
2017-04-28T07:15:21.537Z,200
2017-04-28T07:15:47.010Z,200
2017-04-28T07:16:12.448Z,205
2017-04-28T07:16:37.925Z,210
2017-04-28T07:17:03.365Z,210
2017-04-28T07:17:28.868Z,220
2017-04-28T07:17:54.318Z,225
2017-04-28T07:18:19.746Z,230
2017-04-28T07:18:45.187Z,240
2017-04-28T07:19:10.655Z,245
2017-04-28T07:19:36.127Z,250
2017-04-28T07:20:01.571Z,250
2017-04-28T07:20:27.094Z,245
2017-04-28T07:20:52.524Z,240
2017-04-28T07:21:17.998Z,240
2017-04-28T07:21:43.486Z,235
2017-04-28T07:22:08.954Z,235
2017-04-28T07:22:34.404Z,235
2017-04-28T07:22:59.922Z,230
2017-04-28T07:23:25.322Z,230
2017-04-28T07:23:50.774Z,230
2017-04-28T07:24:16.247Z,230
2017-04-28T07:24:41.670Z,225
2017-04-28T07:25:07.202Z,225
2017-04-28T07:25:32.651Z,220
2017-04-28T07:25:58.110Z,220
2017-04-28T07:26:23.616Z,215
2017-04-28T07:26:49.048Z,215
2017-04-28T07:27:14.523Z,210
2017-04-28T07:27:40.013Z,205
2017-04-28T07:28:05.472Z,205
2017-04-28T07:28:30.936Z,200
2017-04-28T07:28:56.391Z,200
2017-04-28T07:29:21.895Z,200
2017-04-28T07:29:47.381Z,195
2017-04-28T07:30:12.859Z,195
2017-04-28T07:30:38.292Z,195
2017-04-28T07:31:03.794Z,195
2017-04-28T07:31:29.248Z,200
2017-04-28T07:31:55.539Z,200
2017-04-28T07:32:21.036Z,200
2017-04-28T07:32:46.528Z,200
2017-04-28T07:33:11.982Z,200
2017-04-28T07:33:37.433Z,205
2017-04-28T07:34:02.905Z,205
2017-04-28T07:34:28.363Z,205
2017-04-28T07:34:53.816Z,205
2017-04-28T07:35:19.255Z,210
2017-04-28T07:35:44.833Z,210
2017-04-28T07:36:10.331Z,215
2017-04-28T07:36:35.827Z,220
2017-04-28T07:37:01.326Z,225
2017-04-28T07:37:26.770Z,230
2017-04-28T07:37:52.259Z,235
2017-04-28T07:38:17.724Z,240
2017-04-28T07:38:43.210Z,240
2017-04-28T07:39:08.698Z,240
2017-04-28T07:39:34.175Z,245
2017-04-28T07:39:59.656Z,245
2017-04-28T07:40:25.151Z,250
2017-04-28T07:40:50.605Z,260
2017-04-28T07:41:16.109Z,260
2017-04-28T07:41:41.588Z,265
2017-04-28T07:42:07.176Z,270
2017-04-28T07:42:32.644Z,280
2017-04-28T07:42:58.060Z,285
2017-04-28T07:43:23.556Z,290
2017-04-28T07:43:49.008Z,300
2017-04-28T07:44:14.486Z,310
2017-04-28T07:44:39.962Z,310
2017-04-28T07:45:05.557Z,320
2017-04-28T07:45:31.157Z,325
2017-04-28T07:45:56.692Z,335
2017-04-28T07:46:22.131Z,335
2017-04-28T07:46:47.579Z,340
2017-04-28T07:47:13.037Z,340
2017-04-28T07:47:38.498Z,340
2017-04-28T07:48:04.029Z,340
2017-04-28T07:48:29.412Z,340
2017-04-28T07:48:54.880Z,335
2017-04-28T07:49:20.369Z,335
2017-04-28T07:49:45.778Z,330
2017-04-28T07:50:11.325Z,325
2017-04-28T07:50:36.776Z,320
2017-04-28T07:51:02.286Z,315
2017-04-28T07:51:27.693Z,310
2017-04-28T07:51:53.151Z,310
2017-04-28T07:52:18.674Z,310
2017-04-28T07:52:44.117Z,310
2017-04-28T07:53:09.607Z,310
2017-04-28T07:53:35.123Z,310
2017-04-28T07:54:00.537Z,310
2017-04-28T07:54:26.020Z,305
2017-04-28T07:54:51.470Z,305
2017-04-28T07:55:16.940Z,295
2017-04-28T07:55:42.404Z,290
2017-04-28T07:56:07.889Z,285
2017-04-28T07:56:33.368Z,280
2017-04-28T07:56:58.831Z,275
2017-04-28T07:57:24.295Z,275
2017-04-28T07:57:49.767Z,275
2017-04-28T07:58:15.226Z,275
2017-04-28T07:58:40.684Z,285
2017-04-28T07:59:06.161Z,290
2017-04-28T07:59:31.615Z,295
2017-04-28T07:59:57.078Z,295
2017-04-28T08:00:22.535Z,300
2017-04-28T08:00:47.979Z,295
2017-04-28T08:01:13.434Z,295
2017-04-28T08:01:38.897Z,295
2017-04-28T08:02:04.364Z,300
2017-04-28T08:02:29.860Z,305
2017-04-28T08:02:55.310Z,310
2017-04-28T08:03:20.783Z,315
2017-04-28T08:03:46.246Z,315
2017-04-28T08:04:11.710Z,325
2017-04-28T08:04:37.163Z,330
2017-04-28T08:05:02.635Z,335
2017-04-28T08:05:28.148Z,340
2017-04-28T08:05:53.627Z,345
2017-04-28T08:06:19.071Z,350
2017-04-28T08:06:44.544Z,360
2017-04-28T08:07:10.006Z,365
2017-04-28T08:07:35.465Z,370
2017-04-28T08:08:00.939Z,375
2017-04-28T08:08:26.392Z,380
2017-04-28T08:08:51.872Z,385
2017-04-28T08:09:17.317Z,385
2017-04-28T08:09:42.787Z,385
2017-04-28T08:10:08.252Z,380
2017-04-28T08:10:33.730Z,375
2017-04-28T08:10:59.242Z,365
2017-04-28T08:11:24.715Z,360
2017-04-28T08:11:50.166Z,350
2017-04-28T08:12:15.631Z,340
2017-04-28T08:12:41.106Z,325
2017-04-28T08:13:06.569Z,310
2017-04-28T08:13:32.034Z,295
2017-04-28T08:13:57.481Z,280
2017-04-28T08:14:22.953Z,260
2017-04-28T08:14:48.416Z,250
2017-04-28T08:15:13.891Z,245
2017-04-28T08:15:39.369Z,240
2017-04-28T08:16:04.855Z,235
2017-04-28T08:16:30.337Z,245
2017-04-28T08:16:55.798Z,245
2017-04-28T08:17:21.266Z,250
2017-04-28T08:17:46.701Z,260
2017-04-28T08:18:12.171Z,275
2017-04-28T08:18:37.641Z,290
2017-04-28T08:19:03.118Z,295
2017-04-28T08:19:28.579Z,310
2017-04-28T08:19:54.036Z,320
2017-04-28T08:20:19.509Z,325
2017-04-28T08:20:44.959Z,335
2017-04-28T08:21:10.423Z,350
2017-04-28T08:21:35.886Z,365
2017-04-28T08:22:01.347Z,375
2017-04-28T08:22:26.851Z,385
2017-04-28T08:22:52.297Z,400
2017-04-28T08:23:17.795Z,405
2017-04-28T08:23:43.291Z,400
2017-04-28T08:24:08.753Z,385
2017-04-28T08:24:34.198Z,370
2017-04-28T08:24:59.659Z,350
2017-04-28T08:25:25.141Z,330
2017-04-28T08:25:50.603Z,315
2017-04-28T08:26:16.048Z,300
2017-04-28T08:26:41.519Z,290
2017-04-28T08:27:07.028Z,290
2017-04-28T08:27:32.497Z,285
2017-04-28T08:27:57.971Z,290
2017-04-28T08:28:23.469Z,290
2017-04-28T08:28:48.906Z,290
2017-04-28T08:29:14.384Z,295
2017-04-28T08:29:39.855Z,300
2017-04-28T08:30:05.311Z,305
2017-04-28T08:30:30.785Z,305
2017-04-28T08:30:56.226Z,310
2017-04-28T08:31:21.723Z,315
2017-04-28T08:31:47.190Z,320
2017-04-28T08:32:12.668Z,320
2017-04-28T08:32:38.134Z,320
2017-04-28T08:33:03.582Z,320
2017-04-28T08:33:29.051Z,325
2017-04-28T08:33:54.516Z,325
2017-04-28T08:34:19.983Z,325
2017-04-28T08:34:45.470Z,325
2017-04-28T08:35:10.974Z,325
2017-04-28T08:35:36.444Z,335
2017-04-28T08:36:01.890Z,340
2017-04-28T08:36:27.385Z,345
2017-04-28T08:36:52.853Z,350
2017-04-28T08:37:18.290Z,360
2017-04-28T08:37:43.836Z,370
2017-04-28T08:38:09.224Z,385
2017-04-28T08:38:34.689Z,405
2017-04-28T08:39:00.150Z,415
2017-04-28T08:39:25.601Z,425
2017-04-28T08:39:51.068Z,430
2017-04-28T08:40:16.586Z,430
2017-04-28T08:40:42.008Z,430
2017-04-28T08:41:07.503Z,435
2017-04-28T08:41:32.960Z,440
2017-04-28T08:41:58.428Z,450
2017-04-28T08:42:23.912Z,450
2017-04-28T08:42:49.361Z,450
2017-04-28T08:43:14.831Z,445
2017-04-28T08:43:40.299Z,445
2017-04-28T08:44:05.751Z,450
2017-04-28T08:44:31.194Z,450
2017-04-28T08:44:56.699Z,455
2017-04-28T08:45:22.143Z,460
2017-04-28T08:45:47.618Z,455
2017-04-28T08:46:13.085Z,455
2017-04-28T08:46:38.597Z,460
2017-04-28T08:47:04.042Z,460
2017-04-28T08:47:29.491Z,455
2017-04-28T08:47:54.990Z,450
2017-04-28T08:48:20.465Z,435
2017-04-28T08:48:45.975Z,420
2017-04-28T08:49:11.445Z,395
2017-04-28T08:49:36.890Z,380
2017-04-28T08:50:02.355Z,350
2017-04-28T08:50:27.869Z,325
2017-04-28T08:50:53.366Z,300
2017-04-28T08:51:18.769Z,280
2017-04-28T08:51:44.243Z,270
2017-04-28T08:52:09.722Z,265
2017-04-28T08:52:35.238Z,270
2017-04-28T08:53:00.676Z,275
2017-04-28T08:53:26.174Z,280
2017-04-28T08:53:51.622Z,280
2017-04-28T08:54:17.113Z,280
2017-04-28T08:54:42.577Z,280
2017-04-28T08:55:08.043Z,265
2017-04-28T08:55:33.519Z,250
2017-04-28T08:55:58.995Z,245
2017-04-28T08:56:24.509Z,235
2017-04-28T08:56:49.947Z,230
2017-04-28T08:57:15.427Z,225
2017-04-28T08:57:40.877Z,220
2017-04-28T08:58:06.349Z,220
2017-04-28T08:58:31.811Z,215
2017-04-28T08:58:57.301Z,220
2017-04-28T08:59:22.778Z,220
2017-04-28T08:59:48.284Z,220
2017-04-28T09:00:13.779Z,215
2017-04-28T09:00:39.262Z,210
2017-04-28T09:01:04.728Z,200
2017-04-28T09:01:30.195Z,190
2017-04-28T09:01:55.670Z,185
2017-04-28T09:02:21.180Z,180
2017-04-28T09:02:46.613Z,180
2017-04-28T09:03:12.079Z,180
2017-04-28T09:03:37.555Z,190
2017-04-28T09:04:02.998Z,195
2017-04-28T09:04:28.489Z,205
2017-04-28T09:04:53.978Z,205
2017-04-28T09:05:19.421Z,215
2017-04-28T09:05:44.882Z,220
2017-04-28T09:06:10.391Z,230
2017-04-28T09:06:35.832Z,235
2017-04-28T09:07:01.329Z,245
2017-04-28T09:07:26.818Z,250
2017-04-28T09:07:52.335Z,255
2017-04-28T09:08:17.817Z,265
2017-04-28T09:08:43.323Z,275
2017-04-28T09:09:08.790Z,295
2017-04-28T09:09:34.297Z,310
2017-04-28T09:09:59.816Z,320
2017-04-28T09:10:25.259Z,335
2017-04-28T09:10:50.717Z,340
2017-04-28T09:11:16.197Z,340
2017-04-28T09:11:41.632Z,345
2017-04-28T09:12:07.103Z,345
2017-04-28T09:12:32.608Z,340
2017-04-28T09:12:58.048Z,340
2017-04-28T09:13:23.523Z,335
2017-04-28T09:13:48.964Z,330
2017-04-28T09:14:14.403Z,325
2017-04-28T09:14:39.894Z,325
2017-04-28T09:15:05.384Z,325
2017-04-28T09:15:30.835Z,325
2017-04-28T09:15:56.293Z,325
2017-04-28T09:16:21.749Z,325
2017-04-28T09:16:47.215Z,335
2017-04-28T09:17:12.670Z,345
2017-04-28T09:17:38.117Z,350
2017-04-28T09:18:03.642Z,360
2017-04-28T09:18:29.086Z,375
2017-04-28T09:18:54.550Z,385
2017-04-28T09:19:20.083Z,400
2017-04-28T09:19:45.480Z,420
2017-04-28T09:20:11.038Z,445
2017-04-28T09:20:36.477Z,460
2017-04-28T09:21:01.982Z,470
2017-04-28T09:21:27.437Z,475
2017-04-28T09:21:52.917Z,475
2017-04-28T09:22:18.370Z,465
2017-04-28T09:22:43.847Z,440
2017-04-28T09:23:09.284Z,405
2017-04-28T09:23:34.819Z,365
2017-04-28T09:24:00.227Z,330
2017-04-28T09:24:25.693Z,305
2017-04-28T09:24:51.158Z,280
2017-04-28T09:25:16.624Z,255
2017-04-28T09:25:42.091Z,245
2017-04-28T09:26:07.536Z,240
2017-04-28T09:26:33.099Z,235
2017-04-28T09:26:58.541Z,230
2017-04-28T09:27:24.022Z,230
2017-04-28T09:27:49.490Z,235
2017-04-28T09:28:14.940Z,245
2017-04-28T09:28:40.447Z,255
2017-04-28T09:29:05.934Z,260
2017-04-28T09:29:31.421Z,265
2017-04-28T09:29:56.880Z,265
2017-04-28T09:30:22.376Z,260
2017-04-28T09:30:47.859Z,250
2017-04-28T09:31:13.302Z,240
2017-04-28T09:31:38.789Z,235
2017-04-28T09:32:04.224Z,230
2017-04-28T09:32:29.685Z,225
2017-04-28T09:32:55.212Z,225
2017-04-28T09:33:20.635Z,220
2017-04-28T09:33:46.089Z,220
2017-04-28T09:34:11.566Z,215
2017-04-28T09:34:37.017Z,210
2017-04-28T09:35:02.501Z,205
2017-04-28T09:35:27.967Z,205
2017-04-28T09:35:53.454Z,200
2017-04-28T09:36:18.917Z,200
2017-04-28T09:36:44.401Z,195
2017-04-28T09:37:09.838Z,200
2017-04-28T09:37:35.264Z,195
2017-04-28T09:38:00.708Z,195
2017-04-28T09:38:26.237Z,195
2017-04-28T09:38:51.691Z,195
2017-04-28T09:39:17.110Z,195
2017-04-28T09:39:42.542Z,195
2017-04-28T09:40:08.038Z,195
2017-04-28T09:40:33.488Z,195
2017-04-28T09:40:58.971Z,190
2017-04-28T09:41:24.458Z,190
2017-04-28T09:41:49.945Z,190
2017-04-28T09:42:15.381Z,190
2017-04-28T09:42:40.866Z,190
2017-04-28T09:43:06.327Z,185
2017-04-28T09:43:31.757Z,190
2017-04-28T09:43:57.277Z,190
2017-04-28T09:44:22.714Z,195
2017-04-28T09:44:48.215Z,200
2017-04-28T09:45:13.662Z,205
2017-04-28T09:45:39.146Z,210
2017-04-28T09:46:04.653Z,210
2017-04-28T09:46:30.157Z,210
2017-04-28T09:46:55.627Z,205
2017-04-28T09:47:21.171Z,200
2017-04-28T09:47:46.601Z,195
2017-04-28T09:48:12.094Z,195
2017-04-28T09:48:37.537Z,195
2017-04-28T09:49:03.262Z,195
2017-04-28T09:49:28.635Z,195
2017-04-28T09:49:54.138Z,195
2017-04-28T09:50:19.613Z,190
2017-04-28T09:50:45.051Z,185
2017-04-28T09:51:10.517Z,180
2017-04-28T09:51:35.993Z,175
2017-04-28T09:52:01.486Z,175
2017-04-28T09:52:26.879Z,175
2017-04-28T09:52:52.332Z,175
2017-04-28T09:53:17.805Z,170
2017-04-28T09:53:43.265Z,170
2017-04-28T09:54:08.716Z,165